KABE/ABE METAR and TAF weather

Enter ICAO airport designator
Station Type Date Time Source
KABE METAR 2020/07/09 21:51 UTC NOAA

KABE 092151Z AUTO 14008KT 10SM CLR 32/19 A2995 RMK AO2 SLP137 T03170189


Station Type Date Time Source
KABE Decoded METAR 2020/07/09 21:51 UTC NOAA

LEHIGH VALLEY INTERNATIONAL AIRPORT, PA, United States (KABE) 40-39N 075-27W 114M
Jul 09, 2020 - 05:51 PM EDT / 2020.07.09 2151 UTC
Wind: from the SE (140 degrees) at 9 MPH (8 KT):0
Visibility: 10 mile(s):0
Sky conditions: clear
Temperature: 89.1 F (31.7 C)
Dew Point: 66.0 F (18.9 C)
Relative Humidity: 46%
Pressure (altimeter): 29.95 in. Hg (1014 hPa)
ob: KABE 092151Z AUTO 14008KT 10SM CLR 32/19 A2995 RMK AO2 SLP137 T03170189
cycle: 22

Station Type Date Time Source
KABE TAF 2020/07/09 18:27 UTC NOAA

TAF KABE 091724Z 0918/1018 12004KT P6SM SCT040
FM100800 07006KT P6SM BKN025
FM101200 04006KT P6SM -SHRA OVC015
FM101400 04010KT 4SM SHRA BR OVC012

Example: see airport list